Terminal Aerodrome Forecast
Issued by NWS Portland, OR

Home | Current Version | Previous Version | Text Only | Print | Product List | Glossary On
Versions: 1 2 3 4 5 6 7 8 9 10 11 12 13 14 15 16
000
FTUS46 KPQR 040527
TAFEUG
TAF
KEUG 040527Z 0406/0506 21007KT P6SM SCT025 BKN050
     FM041100 18008KT 6SM -RA OVC025
     FM041500 20009KT 1 1/2SM -RA BR OVC007
     FM041800 27007KT 4SM -SHRA BR BKN015 BKN025
     FM042300 31006KT P6SM SCT025 BKN035=

USA.gov is the U.S. government's official web portal to all federal, state and local government web resources and services.